sensor_id;sensor_type;location;lat;lon;timestamp;P1;durP1;ratioP1;P2;durP2;ratioP2
20104;SDS011;10212;42.714;23.310;2022-08-21T02:36:59;21.58;;;15.18;;
20104;SDS011;10212;42.714;23.310;2022-08-21T02:41:59;23.73;;;14.52;;
20104;SDS011;10212;42.714;23.310;2022-08-21T02:47:00;23.85;;;15.65;;
20104;SDS011;10212;42.714;23.310;2022-08-21T02:52:01;22.42;;;15.23;;
20104;SDS011;10212;42.714;23.310;2022-08-21T02:57:01;23.77;;;15.73;;
20104;SDS011;10212;42.714;23.310;2022-08-21T03:02:02;27.35;;;16.00;;
20104;SDS011;10212;42.714;23.310;2022-08-21T03:07:02;26.17;;;15.50;;
20104;SDS011;10212;42.714;23.310;2022-08-21T03:12:03;26.10;;;15.88;;
20104;SDS011;10212;42.714;23.310;2022-08-21T03:17:04;25.23;;;15.52;;
20104;SDS011;10212;42.714;23.310;2022-08-21T03:22:05;24.27;;;15.40;;
20104;SDS011;10212;42.714;23.310;2022-08-21T03:27:06;26.92;;;16.35;;
20104;SDS011;10212;42.714;23.310;2022-08-21T03:32:06;24.90;;;15.90;;
20104;SDS011;10212;42.714;23.310;2022-08-21T03:37:09;27.10;;;15.85;;
20104;SDS011;10212;42.714;23.310;2022-08-21T03:42:10;33.72;;;20.15;;
20104;SDS011;10212;42.714;23.310;2022-08-21T03:47:11;35.13;;;22.13;;
20104;SDS011;10212;42.714;23.310;2022-08-21T03:52:12;38.17;;;22.33;;
20104;SDS011;10212;42.714;23.310;2022-08-21T03:57:13;35.38;;;21.67;;
20104;SDS011;10212;42.714;23.310;2022-08-21T04:02:15;37.65;;;23.48;;
20104;SDS011;10212;42.714;23.310;2022-08-21T04:07:19;41.88;;;24.38;;
20104;SDS011;10212;42.714;23.310;2022-08-21T04:12:20;46.20;;;26.52;;
20104;SDS011;10212;42.714;23.310;2022-08-21T04:17:21;47.97;;;26.77;;
20104;SDS011;10212;42.714;23.310;2022-08-21T04:22:21;49.55;;;28.33;;
20104;SDS011;10212;42.714;23.310;2022-08-21T04:27:22;48.22;;;27.65;;
20104;SDS011;10212;42.714;23.310;2022-08-21T04:32:23;50.33;;;28.73;;
20104;SDS011;10212;42.714;23.310;2022-08-21T04:37:25;51.75;;;28.65;;
20104;SDS011;10212;42.714;23.310;2022-08-21T04:42:26;57.90;;;31.15;;
20104;SDS011;10212;42.714;23.310;2022-08-21T04:47:28;58.58;;;31.13;;
20104;SDS011;10212;42.714;23.310;2022-08-21T04:52:29;47.17;;;28.90;;
20104;SDS011;10212;42.714;23.310;2022-08-21T04:57:29;43.83;;;24.75;;
20104;SDS011;10212;42.714;23.310;2022-08-21T05:02:30;38.10;;;20.50;;
20104;SDS011;10212;42.714;23.310;2022-08-21T05:07:32;35.28;;;20.02;;
20104;SDS011;10212;42.714;23.310;2022-08-21T05:12:34;32.38;;;19.45;;
20104;SDS011;10212;42.714;23.310;2022-08-21T05:17:35;28.00;;;17.55;;
20104;SDS011;10212;42.714;23.310;2022-08-21T05:22:36;26.63;;;16.55;;
20104;SDS011;10212;42.714;23.310;2022-08-21T05:27:37;31.23;;;17.92;;
20104;SDS011;10212;42.714;23.310;2022-08-21T05:32:38;28.85;;;19.05;;
20104;SDS011;10212;42.714;23.310;2022-08-21T05:37:39;25.90;;;18.25;;
20104;SDS011;10212;42.714;23.310;2022-08-21T05:42:40;25.65;;;18.30;;
20104;SDS011;10212;42.714;23.310;2022-08-21T05:47:40;26.40;;;17.60;;
20104;SDS011;10212;42.714;23.310;2022-08-21T05:52:41;29.95;;;17.15;;
20104;SDS011;10212;42.714;23.310;2022-08-21T05:57:42;27.20;;;18.13;;
20104;SDS011;10212;42.714;23.310;2022-08-21T06:02:42;27.45;;;18.60;;
20104;SDS011;10212;42.714;23.310;2022-08-21T06:07:43;26.85;;;18.80;;
20104;SDS011;10212;42.714;23.310;2022-08-21T06:12:44;26.63;;;17.30;;
20104;SDS011;10212;42.714;23.310;2022-08-21T06:17:44;32.67;;;20.75;;
20104;SDS011;10212;42.714;23.310;2022-08-21T06:22:45;31.20;;;21.27;;
20104;SDS011;10212;42.714;23.310;2022-08-21T06:27:45;28.67;;;20.75;;
20104;SDS011;10212;42.714;23.310;2022-08-21T06:32:47;36.50;;;23.92;;
20104;SDS011;10212;42.714;23.310;2022-08-21T06:37:47;35.83;;;25.15;;
20104;SDS011;10212;42.714;23.310;2022-08-21T06:42:48;39.35;;;27.00;;
20104;SDS011;10212;42.714;23.310;2022-08-21T06:47:48;37.35;;;26.40;;
20104;SDS011;10212;42.714;23.310;2022-08-21T06:52:57;35.40;;;23.70;;
20104;SDS011;10212;42.714;23.310;2022-08-21T06:58:00;36.45;;;25.83;;
20104;SDS011;10212;42.714;23.310;2022-08-21T07:03:01;33.83;;;23.13;;
20104;SDS011;10212;42.714;23.310;2022-08-21T07:08:03;31.88;;;21.92;;
20104;SDS011;10212;42.714;23.310;2022-08-21T07:13:04;27.90;;;21.52;;
20104;SDS011;10212;42.714;23.310;2022-08-21T07:18:05;25.67;;;18.25;;
20104;SDS011;10212;42.714;23.310;2022-08-21T07:23:11;22.85;;;17.63;;
20104;SDS011;10212;42.714;23.310;2022-08-21T07:28:16;23.42;;;16.80;;
20104;SDS011;10212;42.714;23.310;2022-08-21T07:33:21;22.55;;;16.92;;
20104;SDS011;10212;42.714;23.310;2022-08-21T07:38:22;24.38;;;15.52;;
20104;SDS011;10212;42.714;23.310;2022-08-21T07:43:23;21.15;;;14.07;;
20104;SDS011;10212;42.714;23.310;2022-08-21T07:48:27;21.38;;;13.95;;
20104;SDS011;10212;42.714;23.310;2022-08-21T07:53:27;22.23;;;14.88;;
20104;SDS011;10212;42.714;23.310;2022-08-21T07:58:28;22.58;;;14.27;;
20104;SDS011;10212;42.714;23.310;2022-08-21T08:03:28;21.05;;;15.60;;
20104;SDS011;10212;42.714;23.310;2022-08-21T08:08:29;22.27;;;15.43;;
20104;SDS011;10212;42.714;23.310;2022-08-21T08:13:30;25.02;;;16.80;;
20104;SDS011;10212;42.714;23.310;2022-08-21T08:18:34;24.17;;;16.03;;
20104;SDS011;10212;42.714;23.310;2022-08-21T08:23:34;25.15;;;16.58;;
20104;SDS011;10212;42.714;23.310;2022-08-21T08:28:35;28.70;;;15.63;;
20104;SDS011;10212;42.714;23.310;2022-08-21T08:33:36;20.27;;;15.25;;
20104;SDS011;10212;42.714;23.310;2022-08-21T08:38:36;23.52;;;15.05;;
20104;SDS011;10212;42.714;23.310;2022-08-21T08:43:37;21.75;;;13.48;;
20104;SDS011;10212;42.714;23.310;2022-08-21T08:48:41;21.83;;;14.65;;
20104;SDS011;10212;42.714;23.310;2022-08-21T08:53:50;20.05;;;13.10;;
20104;SDS011;10212;42.714;23.310;2022-08-21T08:58:56;17.90;;;13.07;;
20104;SDS011;10212;42.714;23.310;2022-08-21T09:04:06;17.23;;;12.55;;
20104;SDS011;10212;42.714;23.310;2022-08-21T09:14:49;16.70;;;11.82;;
20104;SDS011;10212;42.714;23.310;2022-08-21T09:25:24;17.05;;;10.57;;
20104;SDS011;10212;42.714;23.310;2022-08-21T09:30:28;14.95;;;9.48;;
20104;SDS011;10212;42.714;23.310;2022-08-21T09:35:31;15.18;;;8.98;;
20104;SDS011;10212;42.714;23.310;2022-08-21T09:45:41;13.73;;;8.13;;
20104;SDS011;10212;42.714;23.310;2022-08-21T09:55:52;12.65;;;7.55;;
20104;SDS011;10212;42.714;23.310;2022-08-21T10:01:15;11.52;;;6.70;;
20104;SDS011;10212;42.714;23.310;2022-08-21T10:06:24;11.45;;;8.48;;
20104;SDS011;10212;42.714;23.310;2022-08-21T10:11:27;11.70;;;7.75;;
20104;SDS011;10212;42.714;23.310;2022-08-21T10:16:39;14.05;;;8.00;;
20104;SDS011;10212;42.714;23.310;2022-08-21T10:22:20;13.98;;;7.93;;
20104;SDS011;10212;42.714;23.310;2022-08-21T10:49:27;10.25;;;7.00;;
20104;SDS011;10212;42.714;23.310;2022-08-21T10:55:00;12.18;;;7.25;;
20104;SDS011;10212;42.714;23.310;2022-08-21T11:00:08;13.63;;;8.43;;
20104;SDS011;10212;42.714;23.310;2022-08-21T11:10:30;16.55;;;9.30;;
20104;SDS011;10212;42.714;23.310;2022-08-21T11:15:55;11.55;;;7.05;;
20104;SDS011;10212;42.714;23.310;2022-08-21T11:26:30;12.45;;;7.18;;
20104;SDS011;10212;42.714;23.310;2022-08-21T11:31:47;11.23;;;6.97;;
20104;SDS011;10212;42.714;23.310;2022-08-21T11:37:02;13.90;;;7.60;;
20104;SDS011;10212;42.714;23.310;2022-08-21T11:42:22;14.35;;;8.10;;
20104;SDS011;10212;42.714;23.310;2022-08-21T11:47:41;11.77;;;6.45;;
20104;SDS011;10212;42.714;23.310;2022-08-21T11:52:57;10.88;;;6.05;;
20104;SDS011;10212;42.714;23.310;2022-08-21T11:58:15;9.47;;;5.90;;
20104;SDS011;10212;42.714;23.310;2022-08-21T12:03:24;9.43;;;5.68;;
20104;SDS011;10212;42.714;23.310;2022-08-21T12:08:29;9.45;;;6.15;;
20104;SDS011;10212;42.714;23.310;2022-08-21T12:13:34;11.30;;;5.80;;
20104;SDS011;10212;42.714;23.310;2022-08-21T12:18:37;8.77;;;6.40;;
20104;SDS011;10212;42.714;23.310;2022-08-21T12:23:57;10.23;;;6.38;;
20104;SDS011;10212;42.714;23.310;2022-08-21T12:29:07;10.68;;;6.45;;
20104;SDS011;10212;42.714;23.310;2022-08-21T12:34:12;9.05;;;6.55;;
20104;SDS011;10212;42.714;23.310;2022-08-21T12:39:17;11.95;;;7.90;;
20104;SDS011;10212;42.714;23.310;2022-08-21T12:44:38;10.00;;;6.95;;
20104;SDS011;10212;42.714;23.310;2022-08-21T12:49:46;9.95;;;6.32;;
20104;SDS011;10212;42.714;23.310;2022-08-21T12:55:12;12.88;;;6.82;;
20104;SDS011;10212;42.714;23.310;2022-08-21T13:00:20;9.38;;;7.10;;
20104;SDS011;10212;42.714;23.310;2022-08-21T13:05:35;8.38;;;6.65;;
20104;SDS011;10212;42.714;23.310;2022-08-21T13:10:40;12.27;;;7.43;;
20104;SDS011;10212;42.714;23.310;2022-08-21T13:15:43;8.75;;;6.38;;
20104;SDS011;10212;42.714;23.310;2022-08-21T13:20:44;8.20;;;6.07;;
20104;SDS011;10212;42.714;23.310;2022-08-21T13:25:44;10.00;;;6.55;;
20104;SDS011;10212;42.714;23.310;2022-08-21T13:30:46;12.98;;;5.90;;
20104;SDS011;10212;42.714;23.310;2022-08-21T13:41:10;8.80;;;5.80;;
20104;SDS011;10212;42.714;23.310;2022-08-21T13:46:15;8.55;;;5.57;;
20104;SDS011;10212;42.714;23.310;2022-08-21T13:51:22;11.93;;;9.30;;
20104;SDS011;10212;42.714;23.310;2022-08-21T13:56:26;9.60;;;5.30;;
20104;SDS011;10212;42.714;23.310;2022-08-21T14:06:39;9.05;;;5.93;;
20104;SDS011;10212;42.714;23.310;2022-08-21T14:11:43;9.38;;;4.90;;
20104;SDS011;10212;42.714;23.310;2022-08-21T14:16:46;9.52;;;5.60;;
20104;SDS011;10212;42.714;23.310;2022-08-21T14:21:53;12.98;;;5.88;;
20104;SDS011;10212;42.714;23.310;2022-08-21T14:27:01;9.52;;;5.50;;
20104;SDS011;10212;42.714;23.310;2022-08-21T14:32:27;8.55;;;5.85;;
20104;SDS011;10212;42.714;23.310;2022-08-21T14:37:27;8.13;;;5.80;;
20104;SDS011;10212;42.714;23.310;2022-08-21T14:42:32;10.70;;;6.53;;
20104;SDS011;10212;42.714;23.310;2022-08-21T14:47:35;10.47;;;7.13;;
20104;SDS011;10212;42.714;23.310;2022-08-21T14:52:37;10.77;;;7.82;;
20104;SDS011;10212;42.714;23.310;2022-08-21T14:57:39;13.25;;;7.88;;
20104;SDS011;10212;42.714;23.310;2022-08-21T15:02:47;11.93;;;8.23;;
20104;SDS011;10212;42.714;23.310;2022-08-21T15:07:50;17.50;;;9.30;;
20104;SDS011;10212;42.714;23.310;2022-08-21T15:12:53;12.82;;;7.88;;
20104;SDS011;10212;42.714;23.310;2022-08-21T15:17:54;12.38;;;7.45;;
20104;SDS011;10212;42.714;23.310;2022-08-21T15:22:56;9.57;;;6.97;;
20104;SDS011;10212;42.714;23.310;2022-08-21T15:28:04;11.15;;;7.57;;
20104;SDS011;10212;42.714;23.310;2022-08-21T15:33:05;12.93;;;7.40;;
20104;SDS011;10212;42.714;23.310;2022-08-21T15:38:08;9.48;;;7.10;;
20104;SDS011;10212;42.714;23.310;2022-08-21T15:43:18;13.52;;;7.72;;
20104;SDS011;10212;42.714;23.310;2022-08-21T15:48:24;12.52;;;7.82;;
20104;SDS011;10212;42.714;23.310;2022-08-21T15:53:27;8.75;;;6.88;;
20104;SDS011;10212;42.714;23.310;2022-08-21T15:58:35;11.77;;;7.18;;
20104;SDS011;10212;42.714;23.310;2022-08-21T16:03:38;12.05;;;7.50;;
20104;SDS011;10212;42.714;23.310;2022-08-21T16:08:48;9.05;;;7.18;;
20104;SDS011;10212;42.714;23.310;2022-08-21T16:13:51;12.18;;;7.35;;
20104;SDS011;10212;42.714;23.310;2022-08-21T16:18:52;12.35;;;7.43;;
20104;SDS011;10212;42.714;23.310;2022-08-21T16:23:53;12.05;;;7.95;;
20104;SDS011;10212;42.714;23.310;2022-08-21T16:28:54;12.30;;;7.63;;
20104;SDS011;10212;42.714;23.310;2022-08-21T16:33:57;14.80;;;7.95;;
20104;SDS011;10212;42.714;23.310;2022-08-21T16:39:00;12.32;;;7.97;;
20104;SDS011;10212;42.714;23.310;2022-08-21T16:44:01;13.52;;;7.60;;
20104;SDS011;10212;42.714;23.310;2022-08-21T16:49:04;13.50;;;7.83;;
20104;SDS011;10212;42.714;23.310;2022-08-21T16:54:04;12.82;;;7.68;;
20104;SDS011;10212;42.714;23.310;2022-08-21T16:59:05;11.65;;;8.20;;
20104;SDS011;10212;42.714;23.310;2022-08-21T17:04:06;11.50;;;8.40;;
20104;SDS011;10212;42.714;23.310;2022-08-21T17:09:08;10.18;;;8.32;;
20104;SDS011;10212;42.714;23.310;2022-08-21T17:14:13;12.13;;;7.78;;
20104;SDS011;10212;42.714;23.310;2022-08-21T17:19:18;13.82;;;8.60;;
20104;SDS011;10212;42.714;23.310;2022-08-21T17:24:19;16.40;;;8.20;;
20104;SDS011;10212;42.714;23.310;2022-08-21T17:29:22;11.73;;;7.13;;
20104;SDS011;10212;42.714;23.310;2022-08-21T17:34:26;11.30;;;7.47;;
20104;SDS011;10212;42.714;23.310;2022-08-21T17:39:26;11.35;;;7.38;;
20104;SDS011;10212;42.714;23.310;2022-08-21T17:44:27;11.02;;;7.60;;
20104;SDS011;10212;42.714;23.310;2022-08-21T17:49:30;12.07;;;7.38;;
20104;SDS011;10212;42.714;23.310;2022-08-21T17:54:34;15.70;;;8.00;;
20104;SDS011;10212;42.714;23.310;2022-08-21T17:59:35;12.60;;;7.95;;
20104;SDS011;10212;42.714;23.310;2022-08-21T18:04:39;17.20;;;9.03;;
20104;SDS011;10212;42.714;23.310;2022-08-21T18:09:42;12.47;;;8.73;;
20104;SDS011;10212;42.714;23.310;2022-08-21T18:14:44;14.68;;;9.13;;
20104;SDS011;10212;42.714;23.310;2022-08-21T18:19:45;12.80;;;9.52;;
20104;SDS011;10212;42.714;23.310;2022-08-21T18:24:45;15.77;;;10.30;;
20104;SDS011;10212;42.714;23.310;2022-08-21T18:29:46;16.33;;;10.32;;
20104;SDS011;10212;42.714;23.310;2022-08-21T18:34:50;16.30;;;10.38;;
20104;SDS011;10212;42.714;23.310;2022-08-21T18:39:53;14.75;;;10.63;;
20104;SDS011;10212;42.714;23.310;2022-08-21T18:44:56;17.08;;;11.02;;
20104;SDS011;10212;42.714;23.310;2022-08-21T18:50:03;11.60;;;9.35;;
20104;SDS011;10212;42.714;23.310;2022-08-21T18:55:05;14.52;;;10.43;;
20104;SDS011;10212;42.714;23.310;2022-08-21T19:00:07;12.27;;;9.52;;
20104;SDS011;10212;42.714;23.310;2022-08-21T19:05:12;15.18;;;9.88;;
20104;SDS011;10212;42.714;23.310;2022-08-21T19:10:16;12.50;;;9.25;;
20104;SDS011;10212;42.714;23.310;2022-08-21T19:15:20;12.65;;;8.90;;
20104;SDS011;10212;42.714;23.310;2022-08-21T19:20:26;11.85;;;8.00;;
20104;SDS011;10212;42.714;23.310;2022-08-21T19:25:29;13.10;;;9.82;;
20104;SDS011;10212;42.714;23.310;2022-08-21T19:30:33;16.23;;;9.60;;
20104;SDS011;10212;42.714;23.310;2022-08-21T19:35:33;12.23;;;9.60;;
20104;SDS011;10212;42.714;23.310;2022-08-21T19:40:37;11.53;;;9.83;;
20104;SDS011;10212;42.714;23.310;2022-08-21T19:45:38;15.25;;;10.63;;
20104;SDS011;10212;42.714;23.310;2022-08-21T19:50:39;13.82;;;10.27;;
20104;SDS011;10212;42.714;23.310;2022-08-21T19:55:42;12.25;;;8.40;;
20104;SDS011;10212;42.714;23.310;2022-08-21T20:00:45;8.25;;;6.88;;
20104;SDS011;10212;42.714;23.310;2022-08-21T20:05:49;10.75;;;7.05;;
20104;SDS011;10212;42.714;23.310;2022-08-21T20:10:50;9.25;;;7.00;;
20104;SDS011;10212;42.714;23.310;2022-08-21T20:15:54;11.57;;;7.93;;
20104;SDS011;10212;42.714;23.310;2022-08-21T20:20:58;12.68;;;9.45;;
20104;SDS011;10212;42.714;23.310;2022-08-21T20:25:59;14.43;;;10.02;;
20104;SDS011;10212;42.714;23.310;2022-08-21T20:31:02;13.60;;;9.52;;
20104;SDS011;10212;42.714;23.310;2022-08-21T20:36:04;13.30;;;10.05;;
20104;SDS011;10212;42.714;23.310;2022-08-21T20:41:05;15.57;;;11.00;;
20104;SDS011;10212;42.714;23.310;2022-08-21T20:46:08;16.70;;;10.30;;
20104;SDS011;10212;42.714;23.310;2022-08-21T20:51:12;16.35;;;10.50;;
20104;SDS011;10212;42.714;23.310;2022-08-21T20:57:07;14.70;;;10.07;;
20104;SDS011;10212;42.714;23.310;2022-08-21T21:01:56;14.25;;;9.95;;
20104;SDS011;10212;42.714;23.310;2022-08-21T21:12:56;10.70;;;8.98;;
20104;SDS011;10212;42.714;23.310;2022-08-21T21:23:13;8.75;;;7.03;;
20104;SDS011;10212;42.714;23.310;2022-08-21T21:28:20;9.15;;;7.80;;
20104;SDS011;10212;42.714;23.310;2022-08-21T21:33:26;13.43;;;7.40;;
20104;SDS011;10212;42.714;23.310;2022-08-21T21:38:31;9.50;;;7.45;;
20104;SDS011;10212;42.714;23.310;2022-08-21T21:49:11;9.68;;;6.82;;
20104;SDS011;10212;42.714;23.310;2022-08-21T22:00:07;9.00;;;7.85;;
20104;SDS011;10212;42.714;23.310;2022-08-21T22:10:33;14.07;;;7.57;;
20104;SDS011;10212;42.714;23.310;2022-08-21T22:15:49;9.18;;;7.55;;
20104;SDS011;10212;42.714;23.310;2022-08-21T22:20:59;8.77;;;6.90;;
20104;SDS011;10212;42.714;23.310;2022-08-21T22:26:05;9.38;;;7.05;;
20104;SDS011;10212;42.714;23.310;2022-08-21T22:36:27;10.40;;;8.30;;
20104;SDS011;10212;42.714;23.310;2022-08-21T22:41:30;11.30;;;8.15;;
20104;SDS011;10212;42.714;23.310;2022-08-21T22:46:43;8.95;;;7.38;;
20104;SDS011;10212;42.714;23.310;2022-08-21T22:51:54;11.05;;;8.23;;
20104;SDS011;10212;42.714;23.310;2022-08-21T22:57:08;11.27;;;8.70;;
20104;SDS011;10212;42.714;23.310;2022-08-21T23:07:40;10.45;;;9.30;;
20104;SDS011;10212;42.714;23.310;2022-08-21T23:12:45;10.85;;;9.10;;
20104;SDS011;10212;42.714;23.310;2022-08-21T23:23:27;11.63;;;9.07;;
20104;SDS011;10212;42.714;23.310;2022-08-21T23:33:59;14.02;;;9.85;;
